createdAt,value
2019-04-29T00:02:27.655Z,10.50
2019-04-29T00:04:53.938Z,10.40
2019-04-29T00:07:20.211Z,10.40
2019-04-29T00:09:46.410Z,10.30
2019-04-29T00:12:12.981Z,10.40
2019-04-29T00:14:41.064Z,10.40
2019-04-29T00:17:09.166Z,10.30
2019-04-29T00:19:37.250Z,10.20
2019-04-29T00:22:03.525Z,10.20
2019-04-29T00:24:29.729Z,10.20
2019-04-29T00:26:56.005Z,10.10
2019-04-29T00:29:22.167Z,10.20
2019-04-29T00:31:48.570Z,10.20
2019-04-29T00:34:14.846Z,10.10
2019-04-29T00:36:42.929Z,10.10
2019-04-29T00:39:11.122Z,10.20
2019-04-29T00:41:39.202Z,10.10
2019-04-29T00:44:07.287Z,10.10
2019-04-29T00:46:33.934Z,10.10
2019-04-29T00:49:00.123Z,10.10
2019-04-29T00:51:26.286Z,10.00
2019-04-29T00:53:54.399Z,9.90
2019-04-29T00:56:20.571Z,10.00
2019-04-29T00:58:46.742Z,10.00
2019-04-29T01:01:14.843Z,9.90
2019-04-29T01:03:41.306Z,9.90
2019-04-29T01:06:07.705Z,9.80
2019-04-29T01:08:33.961Z,9.90
2019-04-29T01:11:00.078Z,9.80
2019-04-29T01:13:26.350Z,9.80
2019-04-29T01:15:52.554Z,9.70
2019-04-29T01:18:18.723Z,9.60
2019-04-29T01:20:44.890Z,9.60
2019-04-29T01:23:11.174Z,9.50
2019-04-29T01:25:37.359Z,9.50
2019-04-29T01:28:05.424Z,9.60
2019-04-29T01:30:33.638Z,9.60
2019-04-29T01:32:59.805Z,9.70
2019-04-29T01:35:25.975Z,9.30
2019-04-29T01:37:52.249Z,9.00
2019-04-29T01:40:20.326Z,8.90
2019-04-29T01:42:46.490Z,9.00
2019-04-29T01:45:12.690Z,9.10
2019-04-29T01:47:39.266Z,9.20
2019-04-29T01:50:05.439Z,9.20
2019-04-29T01:52:31.718Z,9.30
2019-04-29T01:54:57.894Z,9.40
2019-04-29T01:57:24.070Z,9.50
2019-04-29T01:59:50.454Z,9.40
2019-04-29T02:02:16.622Z,9.40
2019-04-29T02:04:42.895Z,9.30
2019-04-29T02:07:09.095Z,9.20
2019-04-29T02:09:37.179Z,9.20
2019-04-29T02:12:03.454Z,9.20
2019-04-29T02:14:29.722Z,9.20
2019-04-29T02:16:55.900Z,9.10
2019-04-29T02:19:22.070Z,9.10
2019-04-29T02:21:50.170Z,9.10
2019-04-29T02:24:18.262Z,9.10
2019-04-29T02:26:44.542Z,9.20
2019-04-29T02:29:10.748Z,9.20
2019-04-29T02:31:36.923Z,9.30
2019-04-29T02:34:03.194Z,9.20
2019-04-29T02:36:30.151Z,9.20
2019-04-29T02:38:58.583Z,9.20
2019-04-29T02:41:26.760Z,9.20
2019-04-29T02:43:54.877Z,9.10
2019-04-29T02:46:21.043Z,9.00
2019-04-29T02:48:48.378Z,9.00
2019-04-29T02:51:16.476Z,9.00
2019-04-29T02:53:42.646Z,9.00
2019-04-29T02:56:08.818Z,9.00
2019-04-29T02:58:36.929Z,9.00
2019-04-29T03:01:05.003Z,9.00
2019-04-29T03:03:33.083Z,8.90
2019-04-29T03:06:01.198Z,8.90
2019-04-29T03:08:27.358Z,8.90
2019-04-29T03:10:53.523Z,8.90
2019-04-29T03:13:19.718Z,9.00
2019-04-29T03:15:45.907Z,8.90
2019-04-29T03:18:12.075Z,8.90
2019-04-29T03:20:40.184Z,8.90
2019-04-29T03:23:08.268Z,8.90
2019-04-29T03:25:34.457Z,8.80
2019-04-29T03:28:00.636Z,8.80
2019-04-29T03:30:26.815Z,8.80
2019-04-29T03:32:53.093Z,8.70
2019-04-29T03:35:19.289Z,8.80
2019-04-29T03:37:45.455Z,8.70
2019-04-29T03:40:11.625Z,8.70
2019-04-29T03:42:37.962Z,8.60
2019-04-29T03:45:05.745Z,8.80
2019-04-29T03:47:31.909Z,8.70
2019-04-29T03:49:58.440Z,8.70
2019-04-29T03:52:24.627Z,8.70
2019-04-29T03:54:50.886Z,8.80
2019-04-29T03:57:18.472Z,8.70
2019-04-29T03:59:44.657Z,8.60
2019-04-29T04:02:12.728Z,8.60
2019-04-29T04:04:40.906Z,8.60
2019-04-29T04:07:08.989Z,8.60
2019-04-29T04:09:35.253Z,8.50
2019-04-29T04:12:01.531Z,8.40
2019-04-29T04:14:27.810Z,8.40
2019-04-29T04:16:55.887Z,8.40
2019-04-29T04:19:23.097Z,8.30
2019-04-29T04:21:49.280Z,8.10
2019-04-29T04:24:15.549Z,8.10
2019-04-29T04:26:41.750Z,8.10
2019-04-29T04:29:07.920Z,8.20
2019-04-29T04:31:34.098Z,8.40
2019-04-29T04:34:00.302Z,8.40
2019-04-29T04:36:26.474Z,8.30
2019-04-29T04:38:52.650Z,8.30
2019-04-29T04:41:18.861Z,8.30
2019-04-29T04:43:45.033Z,8.50
2019-04-29T04:46:11.203Z,8.50
2019-04-29T04:48:37.407Z,8.60
2019-04-29T04:51:04.978Z,8.70
2019-04-29T04:53:31.147Z,8.80
2019-04-29T04:55:59.246Z,8.80
2019-04-29T04:58:25.414Z,8.90
2019-04-29T05:00:51.596Z,8.90
2019-04-29T05:03:17.802Z,8.90
2019-04-29T05:05:43.978Z,8.80
2019-04-29T05:08:10.350Z,8.90
2019-04-29T05:10:36.550Z,8.90
2019-04-29T05:13:02.732Z,9.00
2019-04-29T05:15:28.898Z,9.00
2019-04-29T05:17:55.182Z,9.10
2019-04-29T05:20:21.360Z,9.10
2019-04-29T05:22:49.445Z,9.20
2019-04-29T05:25:15.642Z,9.20
2019-04-29T05:27:41.821Z,9.10
2019-04-29T05:30:08.093Z,9.20
2019-04-29T05:32:34.281Z,9.20
2019-04-29T05:35:02.357Z,9.30
2019-04-29T05:37:30.434Z,9.40
2019-04-29T05:39:56.731Z,9.70
2019-04-29T05:42:22.963Z,9.80
2019-04-29T05:44:50.968Z,9.80
2019-04-29T05:47:19.077Z,9.70
2019-04-29T05:49:47.159Z,9.80
2019-04-29T05:52:16.602Z,9.90
2019-04-29T05:54:44.515Z,10.00
2019-04-29T05:57:10.891Z,10.00
2019-04-29T05:59:37.060Z,10.20
2019-04-29T06:02:03.349Z,10.30
2019-04-29T06:04:29.519Z,10.40
2019-04-29T06:06:55.687Z,10.50
2019-04-29T06:09:21.908Z,10.60
2019-04-29T06:11:48.083Z,10.70
2019-04-29T06:14:14.255Z,10.70
2019-04-29T06:16:40.539Z,10.80
2019-04-29T06:19:06.713Z,10.80
2019-04-29T06:21:33.286Z,10.90
2019-04-29T06:24:04.063Z,11.00
2019-04-29T06:26:27.542Z,11.10
2019-04-29T06:28:54.077Z,11.20
2019-04-29T06:31:20.475Z,11.30
2019-04-29T06:33:46.681Z,11.50
2019-04-29T06:36:12.854Z,11.50
2019-04-29T06:38:40.965Z,11.50
2019-04-29T06:41:09.822Z,11.60
2019-04-29T06:43:35.108Z,11.50
2019-04-29T06:46:01.490Z,11.60
2019-04-29T06:48:27.666Z,11.60
2019-04-29T06:50:53.839Z,11.60
2019-04-29T06:53:23.156Z,11.60
2019-04-29T06:55:51.854Z,11.80
2019-04-29T06:58:18.340Z,11.90
2019-04-29T07:00:44.646Z,12.00
2019-04-29T07:03:10.826Z,12.10
2019-04-29T07:05:36.990Z,12.20
2019-04-29T07:08:03.188Z,12.20
2019-04-29T07:10:29.386Z,12.10
2019-04-29T07:12:55.586Z,12.30
2019-04-29T07:15:21.782Z,12.40
2019-04-29T07:17:47.954Z,12.60
2019-04-29T07:20:14.226Z,12.70
2019-04-29T07:22:40.564Z,12.90
2019-04-29T07:25:06.747Z,13.00
2019-04-29T07:27:34.841Z,13.20
2019-04-29T07:30:01.873Z,13.30
2019-04-29T07:32:32.070Z,13.70
2019-04-29T07:34:57.091Z,13.90
2019-04-29T07:37:23.334Z,14.10
2019-04-29T07:39:49.510Z,14.30
2019-04-29T07:42:15.690Z,14.70
2019-04-29T07:44:44.489Z,14.80
2019-04-29T07:47:10.786Z,14.90
2019-04-29T07:49:36.969Z,15.00
2019-04-29T07:52:03.470Z,14.90
2019-04-29T07:54:29.946Z,14.90
2019-04-29T07:56:56.122Z,15.00
2019-04-29T07:59:23.730Z,14.90
2019-04-29T08:01:50.164Z,14.60
2019-04-29T08:04:16.272Z,14.40
2019-04-29T08:06:44.458Z,14.20
2019-04-29T08:09:10.538Z,14.10
2019-04-29T08:11:36.701Z,13.90
2019-04-29T08:14:03.004Z,14.20
2019-04-29T08:16:29.177Z,13.60
2019-04-29T08:18:55.469Z,13.20
2019-04-29T08:21:21.754Z,13.00
2019-04-29T08:23:48.026Z,13.00
2019-04-29T08:26:14.209Z,13.00
2019-04-29T08:28:40.398Z,13.10
2019-04-29T08:31:06.570Z,13.00
2019-04-29T08:33:32.842Z,13.20
2019-04-29T08:35:59.046Z,13.30
2019-04-29T08:38:25.230Z,13.30
2019-04-29T08:40:51.747Z,13.20
2019-04-29T08:43:20.626Z,13.30
2019-04-29T08:45:49.878Z,13.60
2019-04-29T08:48:16.266Z,13.70
2019-04-29T08:50:42.466Z,13.70
2019-04-29T08:53:08.643Z,13.90
2019-04-29T08:55:36.553Z,13.80
2019-04-29T08:58:06.776Z,13.70
2019-04-29T09:00:31.042Z,13.70
2019-04-29T09:02:57.517Z,13.50
2019-04-29T09:05:24.169Z,13.70
2019-04-29T09:07:52.653Z,13.70
2019-04-29T09:10:18.312Z,13.80
2019-04-29T09:12:44.522Z,13.90
2019-04-29T09:15:10.885Z,13.80
2019-04-29T09:17:37.055Z,13.90
2019-04-29T09:20:05.266Z,14.00
2019-04-29T09:22:33.337Z,14.10
2019-04-29T09:25:01.436Z,14.00
2019-04-29T09:27:27.640Z,13.90
2019-04-29T09:29:54.252Z,13.80
2019-04-29T09:32:21.807Z,14.00
2019-04-29T09:34:48.081Z,14.10
2019-04-29T09:37:14.264Z,14.20
2019-04-29T09:39:43.777Z,14.20
2019-04-29T09:42:13.023Z,14.20
2019-04-29T09:44:44.879Z,14.10
2019-04-29T09:47:11.288Z,14.40
2019-04-29T09:49:37.573Z,14.50
2019-04-29T09:52:04.739Z,14.40
2019-04-29T09:54:30.922Z,14.50
2019-04-29T09:56:58.199Z,14.60
2019-04-29T09:59:26.279Z,14.70
2019-04-29T10:01:54.962Z,14.60
2019-04-29T10:04:24.353Z,14.50
2019-04-29T10:06:52.434Z,14.40
2019-04-29T10:09:18.751Z,14.10
2019-04-29T10:11:44.946Z,14.50
2019-04-29T10:14:11.118Z,14.40
2019-04-29T10:16:39.214Z,14.20
2019-04-29T10:19:07.310Z,14.10
2019-04-29T10:21:33.787Z,14.40
2019-04-29T10:24:00.067Z,14.90
2019-04-29T10:26:26.348Z,14.90
2019-04-29T10:28:54.431Z,15.10
2019-04-29T10:31:21.699Z,15.20
2019-04-29T10:33:50.259Z,14.90
2019-04-29T10:36:16.071Z,14.90
2019-04-29T10:38:44.892Z,15.10
2019-04-29T10:41:14.073Z,15.20
2019-04-29T10:43:42.150Z,15.10
2019-04-29T10:46:10.739Z,14.80
2019-04-29T10:48:39.498Z,14.80
2019-04-29T10:51:07.569Z,14.90
2019-04-29T10:53:33.746Z,14.90
2019-04-29T10:56:01.023Z,14.90
2019-04-29T10:58:31.202Z,15.40
2019-04-29T11:01:02.865Z,15.70
2019-04-29T11:03:29.351Z,15.80
2019-04-29T11:06:00.386Z,15.50
2019-04-29T11:08:25.506Z,15.80
2019-04-29T11:10:52.090Z,15.60
2019-04-29T11:13:18.278Z,15.90
2019-04-29T11:15:44.979Z,16.00
2019-04-29T11:18:12.471Z,16.00
2019-04-29T11:20:38.638Z,15.80
2019-04-29T11:23:09.239Z,16.00
2019-04-29T11:25:36.718Z,16.30
2019-04-29T11:28:03.157Z,16.00
2019-04-29T11:30:34.859Z,15.80
2019-04-29T11:33:04.655Z,16.00
2019-04-29T11:35:35.545Z,15.80
2019-04-29T11:38:00.072Z,15.80
2019-04-29T11:40:42.601Z,15.80
2019-04-29T11:42:54.282Z,15.60
2019-04-29T11:45:20.666Z,15.50
2019-04-29T11:47:46.838Z,15.70
2019-04-29T11:50:14.907Z,15.90
2019-04-29T11:52:41.510Z,15.90
2019-04-29T11:55:07.786Z,15.70
2019-04-29T11:57:41.029Z,15.40
2019-04-29T12:00:10.222Z,15.40
2019-04-29T12:02:45.329Z,15.50
2019-04-29T12:05:08.966Z,15.70
2019-04-29T12:07:36.266Z,15.70
2019-04-29T12:10:06.466Z,15.70
2019-04-29T12:12:32.726Z,15.80
2019-04-29T12:15:00.840Z,16.00
2019-04-29T12:17:28.921Z,15.90
2019-04-29T12:19:57.005Z,16.10
2019-04-29T12:22:30.062Z,16.10
2019-04-29T12:24:51.374Z,16.00
2019-04-29T12:27:19.723Z,16.30
2019-04-29T12:29:48.928Z,16.00
2019-04-29T12:32:15.836Z,15.80
2019-04-29T12:34:43.907Z,16.20
2019-04-29T12:37:12.014Z,16.10
2019-04-29T12:39:43.501Z,16.40
2019-04-29T12:42:08.182Z,16.30
2019-04-29T12:44:39.889Z,16.20
2019-04-29T12:47:07.474Z,16.20
2019-04-29T12:49:42.422Z,16.30
2019-04-29T12:52:06.706Z,15.70
2019-04-29T12:54:32.881Z,15.70
2019-04-29T12:56:59.059Z,15.50
2019-04-29T12:59:25.287Z,15.90
2019-04-29T13:01:58.391Z,15.90
2019-04-29T13:04:23.658Z,15.90
2019-04-29T13:06:51.850Z,15.90
2019-04-29T13:09:18.301Z,16.30
2019-04-29T13:11:48.769Z,16.20
2019-04-29T13:14:12.631Z,15.50
2019-04-29T13:16:40.706Z,15.50
2019-04-29T13:19:12.541Z,15.00
2019-04-29T13:21:39.326Z,15.00
2019-04-29T13:24:13.867Z,15.00
2019-04-29T13:26:33.401Z,14.70
2019-04-29T13:29:01.670Z,15.00
2019-04-29T13:31:38.212Z,15.10
2019-04-29T13:34:04.835Z,14.70
2019-04-29T13:36:26.341Z,14.60
2019-04-29T13:38:54.041Z,14.70
2019-04-29T13:41:26.617Z,15.00
2019-04-29T13:44:05.689Z,15.20
2019-04-29T13:46:32.978Z,15.30
2019-04-29T13:49:06.862Z,15.80
2019-04-29T13:51:36.134Z,15.60
2019-04-29T13:53:59.086Z,14.80
2019-04-29T13:56:35.172Z,14.80
2019-04-29T13:58:54.082Z,14.90
2019-04-29T14:01:31.125Z,15.20
2019-04-29T14:03:52.682Z,15.20
2019-04-29T14:06:19.939Z,14.90
2019-04-29T14:08:46.326Z,14.80
2019-04-29T14:11:12.557Z,14.90
2019-04-29T14:13:43.640Z,14.50
2019-04-29T14:16:11.574Z,14.90
2019-04-29T14:18:35.990Z,14.80
2019-04-29T14:21:02.166Z,15.10
2019-04-29T14:23:28.819Z,15.20
2019-04-29T14:25:55.024Z,15.10
2019-04-29T14:28:21.202Z,14.60
2019-04-29T14:30:48.878Z,14.60
2019-04-29T14:33:19.320Z,14.40
2019-04-29T14:35:48.243Z,14.90
2019-04-29T14:38:15.243Z,14.80
2019-04-29T14:40:42.803Z,14.90
2019-04-29T14:43:26.033Z,14.60
2019-04-29T14:45:39.314Z,15.00
2019-04-29T14:48:07.616Z,15.60
2019-04-29T14:50:33.991Z,15.00
2019-04-29T14:53:00.171Z,15.00
2019-04-29T14:55:27.084Z,14.80
2019-04-29T14:57:53.390Z,14.80
2019-04-29T15:00:21.665Z,15.00
2019-04-29T15:02:48.131Z,15.00
2019-04-29T15:05:15.078Z,15.10
2019-04-29T15:07:41.466Z,14.90
2019-04-29T15:10:08.099Z,14.90
2019-04-29T15:12:36.369Z,15.30
2019-04-29T15:15:06.598Z,15.60
2019-04-29T15:17:34.719Z,15.80
2019-04-29T15:20:02.859Z,16.10
2019-04-29T15:22:30.995Z,15.90
2019-04-29T15:24:57.293Z,15.60
2019-04-29T15:27:23.475Z,15.30
2019-04-29T15:29:49.651Z,15.60
2019-04-29T15:32:17.900Z,16.00
2019-04-29T15:34:47.714Z,15.50
2019-04-29T15:37:11.912Z,15.30
2019-04-29T15:39:40.903Z,15.70
2019-04-29T15:42:08.601Z,15.50
2019-04-29T15:44:34.347Z,14.90
2019-04-29T15:47:00.633Z,14.80
2019-04-29T15:49:26.798Z,14.10
2019-04-29T15:51:53.010Z,14.50
2019-04-29T15:54:19.216Z,14.50
2019-04-29T15:56:45.381Z,14.80
2019-04-29T15:59:11.554Z,14.30
2019-04-29T16:01:41.389Z,14.30
2019-04-29T16:04:07.746Z,14.40
2019-04-29T16:06:39.964Z,14.70
2019-04-29T16:09:07.590Z,14.60
2019-04-29T16:11:35.678Z,14.70
2019-04-29T16:14:09.537Z,14.90
2019-04-29T16:16:30.982Z,14.60
2019-04-29T16:19:07.308Z,14.40
2019-04-29T16:21:25.326Z,14.50
2019-04-29T16:23:57.476Z,14.70
2019-04-29T16:26:24.835Z,14.30
2019-04-29T16:28:47.679Z,14.40
2019-04-29T16:31:14.453Z,14.60
2019-04-29T16:33:40.876Z,15.10
2019-04-29T16:36:07.026Z,15.20
2019-04-29T16:38:33.230Z,14.80
2019-04-29T16:41:01.408Z,14.70
2019-04-29T16:43:29.474Z,15.00
2019-04-29T16:45:57.570Z,14.80
2019-04-29T16:48:24.042Z,14.50
2019-04-29T16:50:50.245Z,14.60
2019-04-29T16:53:16.422Z,14.70
2019-04-29T16:55:43.454Z,15.60
2019-04-29T16:58:17.832Z,15.60
2019-04-29T17:00:39.403Z,15.30
2019-04-29T17:03:05.603Z,14.40
2019-04-29T17:05:31.761Z,14.60
2019-04-29T17:07:58.457Z,14.70
2019-04-29T17:10:24.638Z,14.40
2019-04-29T17:12:51.418Z,14.50
2019-04-29T17:15:25.150Z,15.30
2019-04-29T17:17:46.009Z,14.70
2019-04-29T17:20:12.374Z,14.50
2019-04-29T17:22:43.415Z,14.60
2019-04-29T17:25:08.769Z,14.80
2019-04-29T17:27:41.965Z,14.60
2019-04-29T17:30:08.344Z,14.00
2019-04-29T17:32:44.396Z,14.00
2019-04-29T17:35:05.854Z,13.90
2019-04-29T17:37:32.302Z,13.90
2019-04-29T17:39:58.474Z,14.10
2019-04-29T17:42:26.554Z,13.80
2019-04-29T17:44:52.749Z,13.90
2019-04-29T17:47:20.931Z,14.10
2019-04-29T17:49:49.195Z,14.40
2019-04-29T17:52:17.992Z,14.50
2019-04-29T17:54:46.209Z,14.30
2019-04-29T17:57:26.485Z,14.60
2019-04-29T17:59:45.540Z,14.40
2019-04-29T18:02:21.852Z,14.40
2019-04-29T18:04:42.050Z,14.60
2019-04-29T18:07:12.272Z,14.30
2019-04-29T18:09:40.478Z,13.80
2019-04-29T18:12:08.566Z,13.70
2019-04-29T18:14:38.913Z,13.60
2019-04-29T18:17:05.050Z,13.30
2019-04-29T18:19:34.909Z,12.90
2019-04-29T18:22:03.242Z,12.60
2019-04-29T18:24:34.125Z,12.50
2019-04-29T18:27:01.310Z,12.40
2019-04-29T18:29:27.615Z,12.40
2019-04-29T18:31:55.552Z,12.30
2019-04-29T18:34:21.874Z,12.40
2019-04-29T18:36:48.178Z,12.30
2019-04-29T18:39:20.108Z,12.10
2019-04-29T18:41:44.841Z,12.00
2019-04-29T18:44:19.019Z,12.00
2019-04-29T18:46:39.158Z,12.00
2019-04-29T18:49:07.083Z,12.10
2019-04-29T18:51:34.773Z,12.00
2019-04-29T18:54:01.009Z,11.90
2019-04-29T18:56:27.382Z,11.90
2019-04-29T18:58:53.586Z,11.90
2019-04-29T19:01:24.047Z,11.90
2019-04-29T19:03:49.959Z,11.80
2019-04-29T19:06:16.354Z,11.80
2019-04-29T19:08:42.518Z,11.70
2019-04-29T19:11:09.086Z,11.70
2019-04-29T19:13:36.263Z,11.70
2019-04-29T19:16:09.593Z,11.70
2019-04-29T19:18:30.754Z,11.60
2019-04-29T19:20:57.125Z,11.60
2019-04-29T19:23:24.611Z,11.70
2019-04-29T19:25:51.342Z,11.70
2019-04-29T19:28:29.965Z,11.70
2019-04-29T19:30:45.769Z,11.70
2019-04-29T19:33:12.002Z,11.60
2019-04-29T19:35:38.746Z,11.60
2019-04-29T19:38:06.963Z,11.50
2019-04-29T19:40:39.027Z,11.60
2019-04-29T19:43:01.406Z,11.60
2019-04-29T19:45:27.682Z,11.60
2019-04-29T19:47:55.684Z,11.60
2019-04-29T19:50:21.854Z,11.50
2019-04-29T19:52:48.130Z,11.50
2019-04-29T19:55:14.475Z,11.50
2019-04-29T19:57:46.646Z,11.50
2019-04-29T20:00:09.312Z,11.50
2019-04-29T20:02:36.518Z,11.40
2019-04-29T20:05:08.333Z,11.40
2019-04-29T20:07:41.281Z,11.40
2019-04-29T20:10:08.327Z,11.30
2019-04-29T20:12:33.599Z,11.30
2019-04-29T20:15:02.348Z,11.30
2019-04-29T20:17:31.522Z,11.30
2019-04-29T20:20:00.826Z,11.30
2019-04-29T20:22:27.461Z,11.20
2019-04-29T20:24:55.631Z,11.20
2019-04-29T20:27:25.886Z,11.20
2019-04-29T20:29:49.908Z,11.20
2019-04-29T20:32:16.749Z,11.20
2019-04-29T20:34:43.320Z,11.10
2019-04-29T20:37:10.830Z,11.10
2019-04-29T20:39:37.710Z,11.00
2019-04-29T20:42:06.446Z,11.00
2019-04-29T20:44:32.211Z,11.00
2019-04-29T20:47:17.113Z,11.00
2019-04-29T20:49:26.658Z,11.00
2019-04-29T20:51:56.412Z,11.00
2019-04-29T20:54:25.447Z,11.00
2019-04-29T20:57:02.094Z,11.00
2019-04-29T20:59:20.092Z,11.00
2019-04-29T21:01:48.437Z,11.00
2019-04-29T21:04:30.575Z,10.90
2019-04-29T21:06:57.537Z,10.90
2019-04-29T21:09:10.770Z,10.90
2019-04-29T21:11:38.863Z,10.90
2019-04-29T21:14:08.435Z,10.80
2019-04-29T21:16:36.529Z,10.80
2019-04-29T21:19:08.265Z,10.80
2019-04-29T21:21:36.895Z,10.90
2019-04-29T21:24:01.190Z,10.80
2019-04-29T21:26:27.686Z,10.80
2019-04-29T21:28:55.422Z,10.80
2019-04-29T21:31:21.938Z,10.70
2019-04-29T21:33:50.744Z,10.80
2019-04-29T21:36:18.025Z,10.70
2019-04-29T21:38:48.375Z,10.70
2019-04-29T21:41:20.166Z,10.70
2019-04-29T21:43:52.999Z,10.70
2019-04-29T21:46:18.024Z,10.80
2019-04-29T21:48:42.776Z,10.70
2019-04-29T21:51:11.210Z,10.60
2019-04-29T21:53:40.234Z,10.70
2019-04-29T21:56:09.165Z,10.70
2019-04-29T21:58:34.090Z,10.70
2019-04-29T22:01:00.921Z,10.70
2019-04-29T22:03:28.061Z,10.60
2019-04-29T22:05:55.583Z,10.60
2019-04-29T22:08:27.167Z,10.60
2019-04-29T22:10:50.250Z,10.60
2019-04-29T22:13:16.434Z,10.60
2019-04-29T22:15:43.167Z,10.60
2019-04-29T22:18:13.642Z,10.60
2019-04-29T22:20:42.210Z,10.50
2019-04-29T22:23:08.285Z,10.50
2019-04-29T22:25:33.400Z,10.50
2019-04-29T22:27:59.659Z,10.50
2019-04-29T22:30:26.552Z,10.50
2019-04-29T22:32:58.112Z,10.50
2019-04-29T22:35:21.277Z,10.50
2019-04-29T22:37:47.440Z,10.50
2019-04-29T22:40:15.418Z,10.40
2019-04-29T22:42:45.658Z,10.40
2019-04-29T22:45:11.879Z,10.50
2019-04-29T22:47:38.086Z,10.60
2019-04-29T22:50:04.555Z,10.50
2019-04-29T22:52:31.484Z,10.60
2019-04-29T22:55:01.415Z,10.60
2019-04-29T22:57:30.124Z,10.60
2019-04-29T22:59:57.105Z,10.60
2019-04-29T23:02:25.117Z,10.60
2019-04-29T23:04:53.740Z,10.60
2019-04-29T23:07:22.215Z,10.60
2019-04-29T23:09:47.836Z,10.60
2019-04-29T23:12:18.422Z,10.60
2019-04-29T23:14:44.442Z,10.60
2019-04-29T23:17:12.216Z,10.70
2019-04-29T23:19:38.896Z,10.60
2019-04-29T23:22:10.419Z,10.70
2019-04-29T23:24:38.162Z,10.70
2019-04-29T23:27:06.151Z,10.70
2019-04-29T23:29:32.494Z,10.70
2019-04-29T23:31:59.658Z,10.70
2019-04-29T23:34:29.161Z,10.80
2019-04-29T23:36:54.691Z,10.70
2019-04-29T23:39:20.873Z,10.70
2019-04-29T23:41:47.044Z,10.60
2019-04-29T23:44:13.210Z,10.70
2019-04-29T23:46:39.664Z,10.70
2019-04-29T23:49:06.775Z,10.70
2019-04-29T23:51:34.292Z,10.70
2019-04-29T23:54:05.894Z,10.80
2019-04-29T23:56:31.031Z,10.80
2019-04-29T23:58:59.090Z,10.90
